sensor_id;sensor_type;location;lat;lon;timestamp;P1;durP1;ratioP1;P2;durP2;ratioP2
62479;SDS011;48526;48.846;2.322;2023-05-07T00:00:01;2.00;;;2.00;;
62479;SDS011;48526;48.846;2.322;2023-05-07T00:02:28;2.00;;;2.00;;
62479;SDS011;48526;48.846;2.322;2023-05-07T00:04:53;1.75;;;1.00;;
62479;SDS011;48526;48.846;2.322;2023-05-07T00:07:19;1.00;;;1.00;;
62479;SDS011;48526;48.846;2.322;2023-05-07T00:09:44;1.00;;;1.00;;
62479;SDS011;48526;48.846;2.322;2023-05-07T00:12:10;0.50;;;0.50;;
62479;SDS011;48526;48.846;2.322;2023-05-07T00:14:35;2.00;;;2.00;;
62479;SDS011;48526;48.846;2.322;2023-05-07T00:17:01;2.00;;;2.00;;
62479;SDS011;48526;48.846;2.322;2023-05-07T00:19:26;1.50;;;1.50;;
62479;SDS011;48526;48.846;2.322;2023-05-07T00:21:51;3.00;;;3.00;;
62479;SDS011;48526;48.846;2.322;2023-05-07T00:24:18;4.00;;;3.00;;
62479;SDS011;48526;48.846;2.322;2023-05-07T00:26:44;2.00;;;2.00;;
62479;SDS011;48526;48.846;2.322;2023-05-07T00:29:09;3.00;;;1.75;;
62479;SDS011;48526;48.846;2.322;2023-05-07T00:31:35;3.00;;;3.00;;
62479;SDS011;48526;48.846;2.322;2023-05-07T00:34:00;1.75;;;1.50;;
62479;SDS011;48526;48.846;2.322;2023-05-07T00:36:25;3.00;;;2.00;;
62479;SDS011;48526;48.846;2.322;2023-05-07T00:38:51;2.25;;;2.25;;
62479;SDS011;48526;48.846;2.322;2023-05-07T00:41:16;3.75;;;2.25;;
62479;SDS011;48526;48.846;2.322;2023-05-07T00:43:42;2.00;;;2.00;;
62479;SDS011;48526;48.846;2.322;2023-05-07T00:46:07;2.00;;;2.00;;
62479;SDS011;48526;48.846;2.322;2023-05-07T00:48:32;2.25;;;2.25;;
62479;SDS011;48526;48.846;2.322;2023-05-07T00:50:58;2.50;;;1.50;;
62479;SDS011;48526;48.846;2.322;2023-05-07T00:53:23;3.50;;;1.50;;
62479;SDS011;48526;48.846;2.322;2023-05-07T00:55:49;2.00;;;1.00;;
62479;SDS011;48526;48.846;2.322;2023-05-07T00:58:15;1.00;;;1.00;;
62479;SDS011;48526;48.846;2.322;2023-05-07T01:00:40;2.25;;;1.00;;
62479;SDS011;48526;48.846;2.322;2023-05-07T01:03:06;0.00;;;0.00;;
62479;SDS011;48526;48.846;2.322;2023-05-07T01:05:31;1.00;;;1.00;;
62479;SDS011;48526;48.846;2.322;2023-05-07T01:07:57;1.00;;;1.00;;
62479;SDS011;48526;48.846;2.322;2023-05-07T01:10:23;4.50;;;1.75;;
62479;SDS011;48526;48.846;2.322;2023-05-07T01:12:49;2.00;;;0.50;;
62479;SDS011;48526;48.846;2.322;2023-05-07T01:15:15;1.00;;;1.00;;
62479;SDS011;48526;48.846;2.322;2023-05-07T01:17:41;1.00;;;1.00;;
62479;SDS011;48526;48.846;2.322;2023-05-07T01:20:07;1.50;;;1.00;;
62479;SDS011;48526;48.846;2.322;2023-05-07T01:22:35;1.00;;;1.00;;
62479;SDS011;48526;48.846;2.322;2023-05-07T01:25:03;1.75;;;1.00;;
62479;SDS011;48526;48.846;2.322;2023-05-07T01:27:29;0.25;;;0.25;;
62479;SDS011;48526;48.846;2.322;2023-05-07T01:29:54;1.00;;;1.00;;
62479;SDS011;48526;48.846;2.322;2023-05-07T01:32:27;0.50;;;0.50;;
62479;SDS011;48526;48.846;2.322;2023-05-07T01:34:56;0.00;;;0.00;;
62479;SDS011;48526;48.846;2.322;2023-05-07T01:37:23;0.25;;;0.25;;
62479;SDS011;48526;48.846;2.322;2023-05-07T01:39:48;1.00;;;1.00;;
62479;SDS011;48526;48.846;2.322;2023-05-07T01:42:14;0.75;;;0.75;;
62479;SDS011;48526;48.846;2.322;2023-05-07T01:44:40;0.00;;;0.00;;
62479;SDS011;48526;48.846;2.322;2023-05-07T01:47:05;1.75;;;1.75;;
62479;SDS011;48526;48.846;2.322;2023-05-07T01:49:31;1.00;;;1.00;;
62479;SDS011;48526;48.846;2.322;2023-05-07T01:51:56;2.00;;;1.00;;
62479;SDS011;48526;48.846;2.322;2023-05-07T01:54:26;3.00;;;1.00;;
62479;SDS011;48526;48.846;2.322;2023-05-07T01:56:52;0.50;;;0.50;;
62479;SDS011;48526;48.846;2.322;2023-05-07T01:59:18;1.00;;;1.00;;
62479;SDS011;48526;48.846;2.322;2023-05-07T02:01:43;0.00;;;0.00;;
62479;SDS011;48526;48.846;2.322;2023-05-07T02:04:09;2.00;;;1.00;;
62479;SDS011;48526;48.846;2.322;2023-05-07T02:06:34;1.00;;;1.00;;
62479;SDS011;48526;48.846;2.322;2023-05-07T02:09:00;1.00;;;1.00;;
62479;SDS011;48526;48.846;2.322;2023-05-07T02:11:25;1.00;;;1.00;;
62479;SDS011;48526;48.846;2.322;2023-05-07T02:13:50;1.00;;;1.00;;
62479;SDS011;48526;48.846;2.322;2023-05-07T02:16:17;0.75;;;0.75;;
62479;SDS011;48526;48.846;2.322;2023-05-07T02:18:44;3.00;;;1.00;;
62479;SDS011;48526;48.846;2.322;2023-05-07T02:21:09;1.75;;;1.75;;
62479;SDS011;48526;48.846;2.322;2023-05-07T02:23:35;1.00;;;1.00;;
62479;SDS011;48526;48.846;2.322;2023-05-07T02:26:00;1.75;;;1.00;;
62479;SDS011;48526;48.846;2.322;2023-05-07T02:28:25;1.75;;;1.00;;
62479;SDS011;48526;48.846;2.322;2023-05-07T02:30:52;4.00;;;3.00;;
62479;SDS011;48526;48.846;2.322;2023-05-07T02:33:17;2.00;;;1.00;;
62479;SDS011;48526;48.846;2.322;2023-05-07T02:35:43;2.00;;;1.00;;
62479;SDS011;48526;48.846;2.322;2023-05-07T02:38:08;1.00;;;1.00;;
62479;SDS011;48526;48.846;2.322;2023-05-07T02:40:35;1.00;;;1.00;;
62479;SDS011;48526;48.846;2.322;2023-05-07T02:43:04;4.00;;;2.00;;
62479;SDS011;48526;48.846;2.322;2023-05-07T02:45:30;3.00;;;2.00;;
62479;SDS011;48526;48.846;2.322;2023-05-07T02:47:56;2.25;;;1.00;;
62479;SDS011;48526;48.846;2.322;2023-05-07T02:50:21;2.25;;;1.25;;
62479;SDS011;48526;48.846;2.322;2023-05-07T02:52:46;2.50;;;1.00;;
62479;SDS011;48526;48.846;2.322;2023-05-07T02:55:12;1.00;;;1.00;;
62479;SDS011;48526;48.846;2.322;2023-05-07T02:57:38;2.00;;;1.00;;
62479;SDS011;48526;48.846;2.322;2023-05-07T03:00:13;1.00;;;1.00;;
62479;SDS011;48526;48.846;2.322;2023-05-07T03:02:40;3.00;;;1.00;;
62479;SDS011;48526;48.846;2.322;2023-05-07T03:05:06;1.25;;;1.25;;
62479;SDS011;48526;48.846;2.322;2023-05-07T03:07:31;1.50;;;1.50;;
62479;SDS011;48526;48.846;2.322;2023-05-07T03:09:57;0.25;;;0.25;;
62479;SDS011;48526;48.846;2.322;2023-05-07T03:12:22;2.25;;;0.00;;
62479;SDS011;48526;48.846;2.322;2023-05-07T03:14:48;0.00;;;0.00;;
62479;SDS011;48526;48.846;2.322;2023-05-07T03:17:13;0.00;;;0.00;;
62479;SDS011;48526;48.846;2.322;2023-05-07T03:19:38;1.00;;;1.00;;
62479;SDS011;48526;48.846;2.322;2023-05-07T03:22:04;1.00;;;1.00;;
62479;SDS011;48526;48.846;2.322;2023-05-07T03:24:29;1.75;;;1.00;;
62479;SDS011;48526;48.846;2.322;2023-05-07T03:26:55;1.00;;;1.00;;
62479;SDS011;48526;48.846;2.322;2023-05-07T03:29:20;1.75;;;1.75;;
62479;SDS011;48526;48.846;2.322;2023-05-07T03:31:45;1.00;;;1.00;;
62479;SDS011;48526;48.846;2.322;2023-05-07T03:34:11;0.00;;;0.00;;
62479;SDS011;48526;48.846;2.322;2023-05-07T03:36:36;1.00;;;1.00;;
62479;SDS011;48526;48.846;2.322;2023-05-07T03:39:02;0.00;;;0.00;;
62479;SDS011;48526;48.846;2.322;2023-05-07T03:41:27;1.00;;;1.00;;
62479;SDS011;48526;48.846;2.322;2023-05-07T03:43:54;1.00;;;0.00;;
62479;SDS011;48526;48.846;2.322;2023-05-07T03:46:19;2.00;;;0.75;;
62479;SDS011;48526;48.846;2.322;2023-05-07T03:48:45;0.00;;;0.00;;
62479;SDS011;48526;48.846;2.322;2023-05-07T03:51:10;0.00;;;0.00;;
62479;SDS011;48526;48.846;2.322;2023-05-07T03:53:36;0.00;;;0.00;;
62479;SDS011;48526;48.846;2.322;2023-05-07T03:56:01;1.75;;;0.00;;
62479;SDS011;48526;48.846;2.322;2023-05-07T03:58:27;0.00;;;0.00;;
62479;SDS011;48526;48.846;2.322;2023-05-07T04:00:52;0.75;;;0.75;;
62479;SDS011;48526;48.846;2.322;2023-05-07T04:03:18;1.00;;;1.00;;
62479;SDS011;48526;48.846;2.322;2023-05-07T04:05:43;1.75;;;0.00;;
62479;SDS011;48526;48.846;2.322;2023-05-07T04:08:09;0.50;;;0.50;;
62479;SDS011;48526;48.846;2.322;2023-05-07T04:10:34;3.25;;;0.50;;
62479;SDS011;48526;48.846;2.322;2023-05-07T04:12:59;1.75;;;0.00;;
62479;SDS011;48526;48.846;2.322;2023-05-07T04:15:25;0.00;;;0.00;;
62479;SDS011;48526;48.846;2.322;2023-05-07T04:17:50;0.00;;;0.00;;
62479;SDS011;48526;48.846;2.322;2023-05-07T04:20:16;0.00;;;0.00;;
62479;SDS011;48526;48.846;2.322;2023-05-07T04:22:42;0.00;;;0.00;;
62479;SDS011;48526;48.846;2.322;2023-05-07T04:25:08;0.00;;;0.00;;
62479;SDS011;48526;48.846;2.322;2023-05-07T04:27:34;1.00;;;0.00;;
62479;SDS011;48526;48.846;2.322;2023-05-07T04:30:00;0.00;;;0.00;;
62479;SDS011;48526;48.846;2.322;2023-05-07T04:32:27;0.00;;;0.00;;
62479;SDS011;48526;48.846;2.322;2023-05-07T04:34:54;0.00;;;0.00;;
62479;SDS011;48526;48.846;2.322;2023-05-07T04:37:20;0.25;;;0.00;;
62479;SDS011;48526;48.846;2.322;2023-05-07T04:39:45;0.00;;;0.00;;
62479;SDS011;48526;48.846;2.322;2023-05-07T04:42:14;0.00;;;0.00;;
62479;SDS011;48526;48.846;2.322;2023-05-07T04:44:43;2.00;;;1.00;;
62479;SDS011;48526;48.846;2.322;2023-05-07T04:47:08;0.00;;;0.00;;
62479;SDS011;48526;48.846;2.322;2023-05-07T04:49:34;0.00;;;0.00;;
62479;SDS011;48526;48.846;2.322;2023-05-07T04:52:00;0.00;;;0.00;;
62479;SDS011;48526;48.846;2.322;2023-05-07T04:54:26;0.00;;;0.00;;
62479;SDS011;48526;48.846;2.322;2023-05-07T04:56:51;0.00;;;0.00;;
62479;SDS011;48526;48.846;2.322;2023-05-07T04:59:16;0.00;;;0.00;;
62479;SDS011;48526;48.846;2.322;2023-05-07T05:01:42;0.00;;;0.00;;
62479;SDS011;48526;48.846;2.322;2023-05-07T05:04:07;2.75;;;1.00;;
62479;SDS011;48526;48.846;2.322;2023-05-07T05:06:33;0.50;;;0.00;;
62479;SDS011;48526;48.846;2.322;2023-05-07T05:08:58;2.00;;;2.00;;
62479;SDS011;48526;48.846;2.322;2023-05-07T05:11:23;2.00;;;1.00;;
62479;SDS011;48526;48.846;2.322;2023-05-07T05:13:49;0.75;;;0.75;;
62479;SDS011;48526;48.846;2.322;2023-05-07T05:16:14;0.00;;;0.00;;
62479;SDS011;48526;48.846;2.322;2023-05-07T05:18:40;1.50;;;1.50;;
62479;SDS011;48526;48.846;2.322;2023-05-07T05:21:06;2.00;;;1.50;;
62479;SDS011;48526;48.846;2.322;2023-05-07T05:23:31;1.00;;;1.00;;
62479;SDS011;48526;48.846;2.322;2023-05-07T05:25:57;0.00;;;0.00;;
62479;SDS011;48526;48.846;2.322;2023-05-07T05:28:23;1.00;;;0.00;;
62479;SDS011;48526;48.846;2.322;2023-05-07T05:30:48;1.50;;;0.75;;
62479;SDS011;48526;48.846;2.322;2023-05-07T05:33:14;0.00;;;0.00;;
62479;SDS011;48526;48.846;2.322;2023-05-07T05:35:39;0.00;;;0.00;;
62479;SDS011;48526;48.846;2.322;2023-05-07T05:38:05;0.00;;;0.00;;
62479;SDS011;48526;48.846;2.322;2023-05-07T05:40:30;0.25;;;0.25;;
62479;SDS011;48526;48.846;2.322;2023-05-07T05:42:56;0.00;;;0.00;;
62479;SDS011;48526;48.846;2.322;2023-05-07T05:45:21;0.00;;;0.00;;
62479;SDS011;48526;48.846;2.322;2023-05-07T05:47:46;0.00;;;0.00;;
62479;SDS011;48526;48.846;2.322;2023-05-07T05:50:12;0.00;;;0.00;;
62479;SDS011;48526;48.846;2.322;2023-05-07T05:52:37;0.00;;;0.00;;
62479;SDS011;48526;48.846;2.322;2023-05-07T05:55:03;1.00;;;1.00;;
62479;SDS011;48526;48.846;2.322;2023-05-07T05:57:28;0.00;;;0.00;;
62479;SDS011;48526;48.846;2.322;2023-05-07T05:59:54;0.00;;;0.00;;
62479;SDS011;48526;48.846;2.322;2023-05-07T06:02:19;1.00;;;1.00;;
62479;SDS011;48526;48.846;2.322;2023-05-07T06:04:45;1.00;;;1.00;;
62479;SDS011;48526;48.846;2.322;2023-05-07T06:07:10;0.50;;;0.00;;
62479;SDS011;48526;48.846;2.322;2023-05-07T06:09:36;0.00;;;0.00;;
62479;SDS011;48526;48.846;2.322;2023-05-07T06:12:01;0.00;;;0.00;;
62479;SDS011;48526;48.846;2.322;2023-05-07T06:14:27;0.00;;;0.00;;
62479;SDS011;48526;48.846;2.322;2023-05-07T06:16:52;0.00;;;0.00;;
62479;SDS011;48526;48.846;2.322;2023-05-07T06:19:18;2.00;;;1.00;;
62479;SDS011;48526;48.846;2.322;2023-05-07T06:21:48;2.25;;;1.00;;
62479;SDS011;48526;48.846;2.322;2023-05-07T06:24:13;0.00;;;0.00;;
62479;SDS011;48526;48.846;2.322;2023-05-07T06:26:38;1.00;;;1.00;;
62479;SDS011;48526;48.846;2.322;2023-05-07T06:29:04;0.00;;;0.00;;
62479;SDS011;48526;48.846;2.322;2023-05-07T06:31:30;0.00;;;0.00;;
62479;SDS011;48526;48.846;2.322;2023-05-07T06:33:56;0.00;;;0.00;;
62479;SDS011;48526;48.846;2.322;2023-05-07T06:36:22;0.00;;;0.00;;
62479;SDS011;48526;48.846;2.322;2023-05-07T06:38:47;0.75;;;0.00;;
62479;SDS011;48526;48.846;2.322;2023-05-07T06:41:13;0.00;;;0.00;;
62479;SDS011;48526;48.846;2.322;2023-05-07T06:43:38;0.00;;;0.00;;
62479;SDS011;48526;48.846;2.322;2023-05-07T06:46:04;1.00;;;1.00;;
62479;SDS011;48526;48.846;2.322;2023-05-07T06:48:30;1.00;;;1.00;;
62479;SDS011;48526;48.846;2.322;2023-05-07T06:50:55;0.00;;;0.00;;
62479;SDS011;48526;48.846;2.322;2023-05-07T06:53:22;2.00;;;0.25;;
62479;SDS011;48526;48.846;2.322;2023-05-07T06:55:48;0.00;;;0.00;;
62479;SDS011;48526;48.846;2.322;2023-05-07T06:58:13;3.00;;;1.75;;
62479;SDS011;48526;48.846;2.322;2023-05-07T07:00:39;1.00;;;1.00;;
62479;SDS011;48526;48.846;2.322;2023-05-07T07:03:05;0.75;;;0.75;;
62479;SDS011;48526;48.846;2.322;2023-05-07T07:05:31;2.00;;;0.75;;
62479;SDS011;48526;48.846;2.322;2023-05-07T07:07:56;1.00;;;1.00;;
62479;SDS011;48526;48.846;2.322;2023-05-07T07:10:22;1.00;;;1.00;;
62479;SDS011;48526;48.846;2.322;2023-05-07T07:12:48;1.25;;;1.25;;
62479;SDS011;48526;48.846;2.322;2023-05-07T07:15:14;1.75;;;1.00;;
62479;SDS011;48526;48.846;2.322;2023-05-07T07:17:39;1.50;;;1.00;;
62479;SDS011;48526;48.846;2.322;2023-05-07T07:20:05;1.25;;;1.25;;
62479;SDS011;48526;48.846;2.322;2023-05-07T07:22:31;1.00;;;1.00;;
62479;SDS011;48526;48.846;2.322;2023-05-07T07:24:56;3.00;;;1.00;;
62479;SDS011;48526;48.846;2.322;2023-05-07T07:27:21;2.00;;;2.00;;
62479;SDS011;48526;48.846;2.322;2023-05-07T07:29:47;1.00;;;1.00;;
62479;SDS011;48526;48.846;2.322;2023-05-07T07:32:12;1.00;;;1.00;;
62479;SDS011;48526;48.846;2.322;2023-05-07T07:34:38;1.75;;;1.75;;
62479;SDS011;48526;48.846;2.322;2023-05-07T07:37:03;1.75;;;0.75;;
62479;SDS011;48526;48.846;2.322;2023-05-07T07:39:31;1.00;;;1.00;;
62479;SDS011;48526;48.846;2.322;2023-05-07T07:42:00;1.25;;;1.25;;
62479;SDS011;48526;48.846;2.322;2023-05-07T07:44:27;0.50;;;0.50;;
62479;SDS011;48526;48.846;2.322;2023-05-07T07:46:53;1.00;;;1.00;;
62479;SDS011;48526;48.846;2.322;2023-05-07T07:49:18;1.00;;;1.00;;
62479;SDS011;48526;48.846;2.322;2023-05-07T07:51:44;0.00;;;0.00;;
62479;SDS011;48526;48.846;2.322;2023-05-07T07:54:09;0.00;;;0.00;;
62479;SDS011;48526;48.846;2.322;2023-05-07T07:56:34;2.00;;;1.00;;
62479;SDS011;48526;48.846;2.322;2023-05-07T07:59:00;1.00;;;1.00;;
62479;SDS011;48526;48.846;2.322;2023-05-07T08:01:26;2.00;;;1.00;;
62479;SDS011;48526;48.846;2.322;2023-05-07T08:03:51;0.25;;;0.25;;
62479;SDS011;48526;48.846;2.322;2023-05-07T08:06:17;1.75;;;1.75;;
62479;SDS011;48526;48.846;2.322;2023-05-07T08:08:42;2.00;;;0.75;;
62479;SDS011;48526;48.846;2.322;2023-05-07T08:11:08;2.00;;;0.00;;
62479;SDS011;48526;48.846;2.322;2023-05-07T08:13:34;1.00;;;1.00;;
62479;SDS011;48526;48.846;2.322;2023-05-07T08:15:59;0.50;;;0.50;;
62479;SDS011;48526;48.846;2.322;2023-05-07T08:18:25;0.50;;;0.50;;
62479;SDS011;48526;48.846;2.322;2023-05-07T08:20:50;1.50;;;0.25;;
62479;SDS011;48526;48.846;2.322;2023-05-07T08:23:17;1.00;;;1.00;;
62479;SDS011;48526;48.846;2.322;2023-05-07T08:25:42;1.00;;;1.00;;
62479;SDS011;48526;48.846;2.322;2023-05-07T08:28:08;1.00;;;1.00;;
62479;SDS011;48526;48.846;2.322;2023-05-07T08:30:33;1.75;;;1.75;;
62479;SDS011;48526;48.846;2.322;2023-05-07T08:32:59;2.00;;;2.00;;
62479;SDS011;48526;48.846;2.322;2023-05-07T08:35:25;1.25;;;1.25;;
62479;SDS011;48526;48.846;2.322;2023-05-07T08:37:52;1.75;;;1.75;;
62479;SDS011;48526;48.846;2.322;2023-05-07T08:40:17;2.25;;;1.75;;
62479;SDS011;48526;48.846;2.322;2023-05-07T08:42:42;2.00;;;2.00;;
62479;SDS011;48526;48.846;2.322;2023-05-07T08:45:09;4.00;;;1.25;;
62479;SDS011;48526;48.846;2.322;2023-05-07T08:47:40;2.00;;;2.00;;
62479;SDS011;48526;48.846;2.322;2023-05-07T08:50:10;2.00;;;2.00;;
62479;SDS011;48526;48.846;2.322;2023-05-07T08:52:36;2.50;;;2.50;;
62479;SDS011;48526;48.846;2.322;2023-05-07T08:55:02;2.75;;;2.75;;
62479;SDS011;48526;48.846;2.322;2023-05-07T08:57:28;3.00;;;3.00;;
62479;SDS011;48526;48.846;2.322;2023-05-07T08:59:53;3.75;;;3.75;;
62479;SDS011;48526;48.846;2.322;2023-05-07T09:02:19;2.75;;;2.75;;
62479;SDS011;48526;48.846;2.322;2023-05-07T09:04:44;3.00;;;2.00;;
62479;SDS011;48526;48.846;2.322;2023-05-07T09:07:10;1.75;;;1.75;;
62479;SDS011;48526;48.846;2.322;2023-05-07T09:09:35;2.50;;;1.75;;
62479;SDS011;48526;48.846;2.322;2023-05-07T09:12:01;3.00;;;2.00;;
62479;SDS011;48526;48.846;2.322;2023-05-07T09:14:28;2.00;;;2.00;;
62479;SDS011;48526;48.846;2.322;2023-05-07T09:16:55;1.00;;;1.00;;
62479;SDS011;48526;48.846;2.322;2023-05-07T09:19:24;4.50;;;3.75;;
62479;SDS011;48526;48.846;2.322;2023-05-07T09:21:57;7.00;;;4.25;;
62479;SDS011;48526;48.846;2.322;2023-05-07T09:24:26;3.00;;;2.00;;
62479;SDS011;48526;48.846;2.322;2023-05-07T09:26:53;2.00;;;2.00;;
62479;SDS011;48526;48.846;2.322;2023-05-07T09:29:20;2.50;;;2.00;;
62479;SDS011;48526;48.846;2.322;2023-05-07T09:31:45;5.25;;;3.00;;
62479;SDS011;48526;48.846;2.322;2023-05-07T09:34:11;1.00;;;1.00;;
62479;SDS011;48526;48.846;2.322;2023-05-07T09:36:36;5.00;;;3.00;;
62479;SDS011;48526;48.846;2.322;2023-05-07T09:39:04;3.00;;;2.00;;
62479;SDS011;48526;48.846;2.322;2023-05-07T09:41:30;6.75;;;5.00;;
62479;SDS011;48526;48.846;2.322;2023-05-07T09:43:57;2.50;;;2.00;;
62479;SDS011;48526;48.846;2.322;2023-05-07T09:46:27;3.00;;;2.00;;
62479;SDS011;48526;48.846;2.322;2023-05-07T09:48:56;3.00;;;3.00;;
62479;SDS011;48526;48.846;2.322;2023-05-07T09:51:43;3.00;;;3.00;;
62479;SDS011;48526;48.846;2.322;2023-05-07T09:54:13;2.50;;;2.50;;
62479;SDS011;48526;48.846;2.322;2023-05-07T09:56:38;2.50;;;2.00;;
62479;SDS011;48526;48.846;2.322;2023-05-07T09:59:06;4.00;;;4.00;;
62479;SDS011;48526;48.846;2.322;2023-05-07T10:01:32;2.00;;;2.00;;
62479;SDS011;48526;48.846;2.322;2023-05-07T10:03:58;4.75;;;3.00;;
62479;SDS011;48526;48.846;2.322;2023-05-07T10:06:26;3.25;;;3.00;;
62479;SDS011;48526;48.846;2.322;2023-05-07T10:08:53;4.00;;;4.00;;
62479;SDS011;48526;48.846;2.322;2023-05-07T10:11:19;4.50;;;4.00;;
62479;SDS011;48526;48.846;2.322;2023-05-07T10:13:46;5.00;;;5.00;;
62479;SDS011;48526;48.846;2.322;2023-05-07T10:16:13;4.00;;;4.00;;
62479;SDS011;48526;48.846;2.322;2023-05-07T10:18:38;3.75;;;3.00;;
62479;SDS011;48526;48.846;2.322;2023-05-07T10:21:15;5.50;;;3.50;;
62479;SDS011;48526;48.846;2.322;2023-05-07T10:23:45;10.25;;;8.50;;
62479;SDS011;48526;48.846;2.322;2023-05-07T10:26:11;2.25;;;2.25;;
62479;SDS011;48526;48.846;2.322;2023-05-07T10:28:38;5.00;;;4.00;;
62479;SDS011;48526;48.846;2.322;2023-05-07T10:34:21;3.50;;;3.50;;
62479;SDS011;48526;48.846;2.322;2023-05-07T10:36:55;5.50;;;3.00;;
62479;SDS011;48526;48.846;2.322;2023-05-07T10:39:21;4.00;;;2.75;;
62479;SDS011;48526;48.846;2.322;2023-05-07T10:41:47;3.00;;;2.00;;
62479;SDS011;48526;48.846;2.322;2023-05-07T10:44:34;5.50;;;3.25;;
62479;SDS011;48526;48.846;2.322;2023-05-07T10:47:10;3.50;;;3.00;;
62479;SDS011;48526;48.846;2.322;2023-05-07T10:49:37;4.00;;;4.00;;
62479;SDS011;48526;48.846;2.322;2023-05-07T10:54:39;4.25;;;3.75;;
62479;SDS011;48526;48.846;2.322;2023-05-07T11:09:02;8.00;;;6.00;;
62479;SDS011;48526;48.846;2.322;2023-05-07T11:11:44;6.25;;;6.25;;
62479;SDS011;48526;48.846;2.322;2023-05-07T11:15:03;7.00;;;7.00;;
62479;SDS011;48526;48.846;2.322;2023-05-07T11:17:06;8.25;;;6.00;;
62479;SDS011;48526;48.846;2.322;2023-05-07T11:19:48;9.25;;;6.00;;
62479;SDS011;48526;48.846;2.322;2023-05-07T11:22:35;8.75;;;8.75;;
62479;SDS011;48526;48.846;2.322;2023-05-07T11:25:01;5.25;;;5.25;;
62479;SDS011;48526;48.846;2.322;2023-05-07T11:27:30;9.75;;;9.75;;
62479;SDS011;48526;48.846;2.322;2023-05-07T11:29:56;6.00;;;6.00;;
62479;SDS011;48526;48.846;2.322;2023-05-07T11:32:25;13.00;;;12.50;;
62479;SDS011;48526;48.846;2.322;2023-05-07T11:34:55;11.50;;;11.00;;
62479;SDS011;48526;48.846;2.322;2023-05-07T11:37:21;19.75;;;16.25;;
62479;SDS011;48526;48.846;2.322;2023-05-07T11:39:48;10.00;;;10.00;;
62479;SDS011;48526;48.846;2.322;2023-05-07T11:44:55;4.25;;;4.25;;
62479;SDS011;48526;48.846;2.322;2023-05-07T11:47:20;6.00;;;6.00;;
62479;SDS011;48526;48.846;2.322;2023-05-07T11:49:47;7.75;;;6.50;;
62479;SDS011;48526;48.846;2.322;2023-05-07T11:52:14;8.50;;;7.75;;
62479;SDS011;48526;48.846;2.322;2023-05-07T11:54:53;6.50;;;6.00;;
62479;SDS011;48526;48.846;2.322;2023-05-07T11:57:20;5.50;;;5.50;;
62479;SDS011;48526;48.846;2.322;2023-05-07T11:59:45;7.00;;;7.00;;
62479;SDS011;48526;48.846;2.322;2023-05-07T12:02:14;11.00;;;9.00;;
62479;SDS011;48526;48.846;2.322;2023-05-07T12:04:40;9.00;;;9.00;;
62479;SDS011;48526;48.846;2.322;2023-05-07T12:07:10;8.00;;;7.50;;
62479;SDS011;48526;48.846;2.322;2023-05-07T12:09:37;7.25;;;5.75;;
62479;SDS011;48526;48.846;2.322;2023-05-07T12:12:03;3.00;;;3.00;;
62479;SDS011;48526;48.846;2.322;2023-05-07T12:14:29;7.75;;;6.00;;
62479;SDS011;48526;48.846;2.322;2023-05-07T12:16:55;5.75;;;4.50;;
62479;SDS011;48526;48.846;2.322;2023-05-07T12:19:20;5.00;;;5.00;;
62479;SDS011;48526;48.846;2.322;2023-05-07T12:21:46;4.00;;;4.00;;
62479;SDS011;48526;48.846;2.322;2023-05-07T12:24:12;5.25;;;5.00;;
62479;SDS011;48526;48.846;2.322;2023-05-07T12:26:39;5.00;;;5.00;;
62479;SDS011;48526;48.846;2.322;2023-05-07T12:29:07;5.00;;;5.00;;
62479;SDS011;48526;48.846;2.322;2023-05-07T12:31:33;6.25;;;6.25;;
62479;SDS011;48526;48.846;2.322;2023-05-07T12:33:58;5.00;;;4.25;;
62479;SDS011;48526;48.846;2.322;2023-05-07T12:36:23;4.00;;;4.00;;
62479;SDS011;48526;48.846;2.322;2023-05-07T12:38:50;7.25;;;6.00;;
62479;SDS011;48526;48.846;2.322;2023-05-07T12:41:16;7.50;;;7.50;;
62479;SDS011;48526;48.846;2.322;2023-05-07T12:43:44;6.00;;;5.75;;
62479;SDS011;48526;48.846;2.322;2023-05-07T12:46:11;5.75;;;5.75;;
62479;SDS011;48526;48.846;2.322;2023-05-07T12:48:38;6.00;;;6.00;;
62479;SDS011;48526;48.846;2.322;2023-05-07T12:51:08;7.25;;;7.00;;
62479;SDS011;48526;48.846;2.322;2023-05-07T12:53:39;5.50;;;5.50;;
62479;SDS011;48526;48.846;2.322;2023-05-07T12:56:05;8.25;;;8.25;;
62479;SDS011;48526;48.846;2.322;2023-05-07T12:58:32;14.25;;;12.00;;
62479;SDS011;48526;48.846;2.322;2023-05-07T13:01:00;7.00;;;7.00;;
62479;SDS011;48526;48.846;2.322;2023-05-07T13:05:54;7.50;;;7.00;;
62479;SDS011;48526;48.846;2.322;2023-05-07T13:08:32;10.00;;;9.00;;
62479;SDS011;48526;48.846;2.322;2023-05-07T13:10:59;9.50;;;8.50;;
62479;SDS011;48526;48.846;2.322;2023-05-07T13:13:28;9.00;;;6.00;;
62479;SDS011;48526;48.846;2.322;2023-05-07T13:15:54;8.50;;;8.50;;
62479;SDS011;48526;48.846;2.322;2023-05-07T13:18:19;9.25;;;9.00;;
62479;SDS011;48526;48.846;2.322;2023-05-07T13:20:45;9.75;;;9.00;;
62479;SDS011;48526;48.846;2.322;2023-05-07T13:23:10;12.00;;;10.75;;
62479;SDS011;48526;48.846;2.322;2023-05-07T13:25:36;7.75;;;7.25;;
62479;SDS011;48526;48.846;2.322;2023-05-07T13:28:01;9.00;;;9.00;;
62479;SDS011;48526;48.846;2.322;2023-05-07T13:30:27;10.25;;;10.25;;
62479;SDS011;48526;48.846;2.322;2023-05-07T13:32:55;12.25;;;11.00;;
62479;SDS011;48526;48.846;2.322;2023-05-07T13:35:20;11.00;;;9.50;;
62479;SDS011;48526;48.846;2.322;2023-05-07T13:37:46;9.75;;;7.75;;
62479;SDS011;48526;48.846;2.322;2023-05-07T13:40:13;9.00;;;7.50;;
62479;SDS011;48526;48.846;2.322;2023-05-07T13:42:38;7.00;;;7.00;;
62479;SDS011;48526;48.846;2.322;2023-05-07T13:45:04;9.50;;;7.50;;
62479;SDS011;48526;48.846;2.322;2023-05-07T13:47:30;6.25;;;6.00;;
62479;SDS011;48526;48.846;2.322;2023-05-07T13:49:55;6.50;;;5.00;;
62479;SDS011;48526;48.846;2.322;2023-05-07T13:52:21;5.00;;;4.00;;
62479;SDS011;48526;48.846;2.322;2023-05-07T13:54:46;5.25;;;4.75;;
62479;SDS011;48526;48.846;2.322;2023-05-07T13:57:12;4.75;;;4.75;;
62479;SDS011;48526;48.846;2.322;2023-05-07T13:59:37;4.00;;;4.00;;
62479;SDS011;48526;48.846;2.322;2023-05-07T14:02:02;5.50;;;4.75;;
62479;SDS011;48526;48.846;2.322;2023-05-07T14:04:28;7.25;;;5.25;;
62479;SDS011;48526;48.846;2.322;2023-05-07T14:06:55;8.00;;;7.00;;
62479;SDS011;48526;48.846;2.322;2023-05-07T14:09:21;5.75;;;5.75;;
62479;SDS011;48526;48.846;2.322;2023-05-07T14:11:46;6.25;;;6.25;;
62479;SDS011;48526;48.846;2.322;2023-05-07T14:14:16;11.50;;;7.50;;
62479;SDS011;48526;48.846;2.322;2023-05-07T14:16:41;10.75;;;10.75;;
62479;SDS011;48526;48.846;2.322;2023-05-07T14:19:07;8.00;;;8.00;;
62479;SDS011;48526;48.846;2.322;2023-05-07T14:21:32;7.75;;;6.50;;
62479;SDS011;48526;48.846;2.322;2023-05-07T14:23:58;8.50;;;8.00;;
62479;SDS011;48526;48.846;2.322;2023-05-07T14:26:24;10.50;;;7.25;;
62479;SDS011;48526;48.846;2.322;2023-05-07T14:28:51;10.50;;;9.00;;
62479;SDS011;48526;48.846;2.322;2023-05-07T14:31:20;10.75;;;8.75;;
62479;SDS011;48526;48.846;2.322;2023-05-07T14:33:46;9.25;;;7.50;;
62479;SDS011;48526;48.846;2.322;2023-05-07T14:36:11;9.75;;;7.75;;
62479;SDS011;48526;48.846;2.322;2023-05-07T14:38:37;10.00;;;8.75;;
62479;SDS011;48526;48.846;2.322;2023-05-07T14:41:03;9.00;;;8.25;;
62479;SDS011;48526;48.846;2.322;2023-05-07T14:43:28;9.00;;;9.00;;
62479;SDS011;48526;48.846;2.322;2023-05-07T14:45:53;5.50;;;5.50;;
62479;SDS011;48526;48.846;2.322;2023-05-07T14:48:19;9.50;;;9.50;;
62479;SDS011;48526;48.846;2.322;2023-05-07T14:50:46;8.75;;;7.00;;
62479;SDS011;48526;48.846;2.322;2023-05-07T14:53:12;9.00;;;8.00;;
62479;SDS011;48526;48.846;2.322;2023-05-07T14:55:38;9.50;;;6.75;;
62479;SDS011;48526;48.846;2.322;2023-05-07T14:58:03;8.00;;;7.75;;
62479;SDS011;48526;48.846;2.322;2023-05-07T15:00:28;8.75;;;7.75;;
62479;SDS011;48526;48.846;2.322;2023-05-07T15:02:55;7.75;;;5.50;;